Time;durP1;ratioP1;P1;durP2;ratioP2;P2;SDS_P1;SDS_P2;PMS_P1;PMS_P2;Temp;Humidity;BMP_temperature;BMP_pressure;BME280_temperature;BME280_humidity;BME280_pressure;Samples;Min_cycle;Max_cycle;Signal;HPM_P1;HPM_P2
2021/12/10 00:01:25;;;;;;;6.90;5.18;;;;;;;;;;5117342;27;20222;-76
2021/12/10 00:03:54;;;;;;;5.75;4.70;;;;;;;;;;5138609;27;20199;-75
2021/12/10 00:06:24;;;;;;;5.95;4.68;;;;;;;;;;5143471;27;20222;-75
2021/12/10 00:08:54;;;;;;;5.85;4.70;;;;;;;;;;5151678;27;20262;-75
2021/12/10 00:11:23;;;;;;;6.55;5.18;;;;;;;;;;5149175;27;20201;-76
2021/12/10 00:13:51;;;;;;;6.03;4.32;;;;;;;;;;5130504;27;20563;-76
2021/12/10 00:16:20;;;;;;;8.05;4.65;;;;;;;;;;5126489;27;20553;-76
2021/12/10 00:18:53;;;;;;;5.80;4.28;;;;;;;;;;5134475;27;20199;-75
2021/12/10 00:21:21;;;;;;;5.15;4.57;;;;;;;;;;5137682;27;20211;-75
2021/12/10 00:23:50;;;;;;;4.57;4.18;;;;;;;;;;5152033;27;20204;-75
2021/12/10 00:26:20;;;;;;;7.18;4.63;;;;;;;;;;5128441;27;20248;-75
2021/12/10 00:28:47;;;;;;;4.50;3.10;;;;;;;;;;5111660;28;20274;-75
2021/12/10 00:31:31;;;;;;;4.60;4.18;;;;;;;;;;5110279;28;20197;-75
2021/12/10 00:33:59;;;;;;;5.88;3.42;;;;;;;;;;5126787;27;20188;-75
2021/12/10 00:36:27;;;;;;;5.47;3.95;;;;;;;;;;5137491;27;20950;-76
2021/12/10 00:38:54;;;;;;;6.20;3.92;;;;;;;;;;5148291;27;20207;-75
2021/12/10 00:41:24;;;;;;;7.47;4.20;;;;;;;;;;5152020;27;20195;-76
2021/12/10 00:43:51;;;;;;;4.53;4.05;;;;;;;;;;5139185;27;20189;-75
2021/12/10 00:46:18;;;;;;;5.32;3.40;;;;;;;;;;5111797;28;20712;-75
2021/12/10 00:48:45;;;;;;;4.03;3.58;;;;;;;;;;5116366;27;20200;-76
2021/12/10 00:51:13;;;;;;;6.68;4.80;;;;;;;;;;5138484;27;20188;-75
2021/12/10 00:53:41;;;;;;;6.53;4.53;;;;;;;;;;5143334;27;20193;-76
2021/12/10 00:56:09;;;;;;;6.40;3.85;;;;;;;;;;5150693;27;20686;-75
2021/12/10 00:58:38;;;;;;;8.30;4.68;;;;;;;;;;5150341;27;20191;-76
2021/12/10 01:01:06;;;;;;;10.23;5.93;;;;;;;;;;5116985;27;20212;-76
2021/12/10 01:03:35;;;;;;;9.23;4.00;;;;;;;;;;5110914;28;20552;-75
2021/12/10 01:06:04;;;;;;;3.75;3.38;;;;;;;;;;5122547;27;20215;-77
2021/12/10 01:08:32;;;;;;;10.23;3.85;;;;;;;;;;5137531;27;20194;-77
2021/12/10 01:11:01;;;;;;;6.70;4.10;;;;;;;;;;5146402;27;20649;-75
2021/12/10 01:13:32;;;;;;;7.65;3.65;;;;;;;;;;5151789;27;20758;-75
2021/12/10 01:16:16;;;;;;;5.47;3.40;;;;;;;;;;5151291;27;20218;-76
2021/12/10 01:24:17;;;;;;;6.57;4.00;;;;;;;;;;5136625;27;20209;-76
2021/12/10 01:26:57;;;;;;;5.75;3.25;;;;;;;;;;5141200;27;20610;-75
2021/12/10 01:29:26;;;;;;;3.70;3.25;;;;;;;;;;5110710;27;20291;-75
2021/12/10 01:31:55;;;;;;;5.60;3.10;;;;;;;;;;5110437;28;20193;-75
2021/12/10 01:34:22;;;;;;;6.63;3.47;;;;;;;;;;5110274;28;20195;-75
2021/12/10 01:36:50;;;;;;;6.32;4.07;;;;;;;;;;5108969;28;20212;-76
2021/12/10 01:39:19;;;;;;;6.68;3.85;;;;;;;;;;5111288;28;20231;-76
2021/12/10 01:41:53;;;;;;;9.75;3.65;;;;;;;;;;5111171;28;20216;-75
2021/12/10 01:44:27;;;;;;;6.55;3.83;;;;;;;;;;5120417;27;20195;-76
2021/12/10 01:46:57;;;;;;;5.50;3.28;;;;;;;;;;5135657;27;20182;-76
2021/12/10 01:49:24;;;;;;;4.78;3.20;;;;;;;;;;5132932;27;20671;-77
2021/12/10 01:51:52;;;;;;;7.63;3.33;;;;;;;;;;5130649;27;20602;-76
2021/12/10 01:54:23;;;;;;;5.68;2.90;;;;;;;;;;5130440;27;20226;-76
2021/12/10 01:56:51;;;;;;;6.68;3.17;;;;;;;;;;5129890;27;20192;-76
2021/12/10 01:59:19;;;;;;;5.03;3.10;;;;;;;;;;5122441;27;20213;-76
2021/12/10 02:01:49;;;;;;;5.63;2.60;;;;;;;;;;5111811;28;20274;-76
2021/12/10 02:04:18;;;;;;;4.68;3.10;;;;;;;;;;5110787;28;20196;-76
2021/12/10 02:06:45;;;;;;;6.53;3.30;;;;;;;;;;5122381;27;20186;-76
2021/12/10 02:09:13;;;;;;;3.85;2.70;;;;;;;;;;5132692;27;20187;-76
2021/12/10 02:11:40;;;;;;;10.25;2.60;;;;;;;;;;5130697;27;20208;-76
2021/12/10 02:14:08;;;;;;;4.50;2.38;;;;;;;;;;5128310;27;20219;-76
2021/12/10 02:16:36;;;;;;;9.63;3.47;;;;;;;;;;5122094;27;20212;-74
2021/12/10 02:19:04;;;;;;;4.68;2.50;;;;;;;;;;5129365;27;20256;-75
2021/12/10 02:21:34;;;;;;;4.53;2.30;;;;;;;;;;5116671;27;20199;-77
2021/12/10 02:24:02;;;;;;;5.97;2.15;;;;;;;;;;5132414;27;20219;-75
2021/12/10 02:26:31;;;;;;;5.10;2.40;;;;;;;;;;5135530;27;20211;-76
2021/12/10 02:28:59;;;;;;;8.75;2.65;;;;;;;;;;5116107;27;20200;-75
2021/12/10 02:31:26;;;;;;;5.90;2.50;;;;;;;;;;5108356;28;20196;-76
2021/12/10 02:33:55;;;;;;;4.15;3.03;;;;;;;;;;5109476;28;20540;-76
2021/12/10 02:36:22;;;;;;;5.20;2.63;;;;;;;;;;5109367;28;20208;-76
2021/12/10 02:38:52;;;;;;;4.18;2.80;;;;;;;;;;5110758;27;20224;-77
2021/12/10 02:41:23;;;;;;;4.85;2.55;;;;;;;;;;5137271;27;20191;-76
2021/12/10 02:43:50;;;;;;;6.35;3.13;;;;;;;;;;5139613;27;20284;-76
2021/12/10 02:46:18;;;;;;;4.80;3.22;;;;;;;;;;5131291;27;20212;-76
2021/12/10 02:48:45;;;;;;;6.60;2.78;;;;;;;;;;5129924;27;20539;-76
2021/12/10 02:51:13;;;;;;;7.75;2.75;;;;;;;;;;5121663;27;20203;-76
2021/12/10 02:53:44;;;;;;;9.38;3.10;;;;;;;;;;5128795;27;20279;-77
2021/12/10 02:56:15;;;;;;;7.72;2.90;;;;;;;;;;5116390;27;21608;-76
2021/12/10 02:58:43;;;;;;;5.25;2.25;;;;;;;;;;5136372;27;20179;-76
2021/12/10 03:01:12;;;;;;;8.43;2.53;;;;;;;;;;5129701;27;20257;-76
2021/12/10 03:03:41;;;;;;;5.35;2.97;;;;;;;;;;5109867;27;20227;-75
2021/12/10 03:06:10;;;;;;;4.10;2.20;;;;;;;;;;5107626;28;20213;-76
2021/12/10 03:08:39;;;;;;;6.05;2.05;;;;;;;;;;5108672;28;20201;-76
2021/12/10 03:11:06;;;;;;;5.13;2.20;;;;;;;;;;5107433;28;20657;-75
2021/12/10 03:13:35;;;;;;;7.72;2.05;;;;;;;;;;5129028;27;20196;-76
2021/12/10 03:16:03;;;;;;;4.65;2.15;;;;;;;;;;5133465;27;20216;-76
2021/12/10 03:18:31;;;;;;;3.30;1.88;;;;;;;;;;5141855;27;20670;-76
2021/12/10 03:20:58;;;;;;;5.00;2.30;;;;;;;;;;5110968;28;20242;-76
2021/12/10 03:23:26;;;;;;;9.02;2.75;;;;;;;;;;5112726;28;20562;-76
2021/12/10 03:25:54;;;;;;;3.83;2.08;;;;;;;;;;5118661;27;20276;-76
2021/12/10 03:28:21;;;;;;;8.10;2.45;;;;;;;;;;5120466;27;20661;-75
2021/12/10 03:30:53;;;;;;;5.78;2.10;;;;;;;;;;5135162;27;20198;-76
2021/12/10 03:33:21;;;;;;;5.57;2.40;;;;;;;;;;5137767;27;20188;-76
2021/12/10 03:35:50;;;;;;;6.57;1.88;;;;;;;;;;5133234;27;20212;-76
2021/12/10 03:38:19;;;;;;;4.68;2.03;;;;;;;;;;5118423;27;20519;-76
2021/12/10 03:40:47;;;;;;;3.47;1.77;;;;;;;;;;5112161;28;20610;-75
2021/12/10 03:43:16;;;;;;;5.28;2.00;;;;;;;;;;5113385;28;20221;-76
2021/12/10 03:45:46;;;;;;;8.38;2.70;;;;;;;;;;5114181;27;20223;-76
2021/12/10 03:48:16;;;;;;;8.65;2.40;;;;;;;;;;5125036;27;20188;-74
2021/12/10 03:50:45;;;;;;;5.13;1.88;;;;;;;;;;5136359;27;20256;-75
2021/12/10 03:53:23;;;;;;;5.68;2.13;;;;;;;;;;5139890;27;20274;-76
2021/12/10 03:55:54;;;;;;;4.70;1.85;;;;;;;;;;5135487;27;20203;-76
2021/12/10 03:58:22;;;;;;;7.38;2.47;;;;;;;;;;5132306;27;20192;-76
2021/12/10 04:01:00;;;;;;;4.88;2.10;;;;;;;;;;5132759;27;20271;-76
2021/12/10 04:03:35;;;;;;;4.95;1.90;;;;;;;;;;5114579;27;20239;-76
2021/12/10 04:06:38;;;;;;;3.22;2.17;;;;;;;;;;5114162;27;20244;-77
2021/12/10 04:09:06;;;;;;;8.20;2.10;;;;;;;;;;5127209;27;20207;-76
2021/12/10 04:14:21;;;;;;;2.55;1.52;;;;;;;;;;5070144;28;20209;-74
2021/12/10 04:16:56;;;;;;;4.70;2.17;;;;;;;;;;5074585;28;20190;-75
2021/12/10 04:19:26;;;;;;;3.88;2.10;;;;;;;;;;5146298;27;20605;-76
2021/12/10 04:22:00;;;;;;;8.90;2.42;;;;;;;;;;5129997;27;20694;-76
2021/12/10 04:24:39;;;;;;;6.22;2.10;;;;;;;;;;5131029;27;20228;-75
2021/12/10 04:27:11;;;;;;;4.00;2.22;;;;;;;;;;5130270;27;20248;-75
2021/12/10 04:29:40;;;;;;;3.47;1.90;;;;;;;;;;5123701;27;20544;-76
2021/12/10 04:35:11;;;;;;;12.43;2.70;;;;;;;;;;5147589;27;20264;-76
2021/12/10 04:37:44;;;;;;;5.57;2.20;;;;;;;;;;5146887;27;20219;-76
2021/12/10 04:40:21;;;;;;;3.30;2.08;;;;;;;;;;5152998;27;20196;-75
2021/12/10 04:42:55;;;;;;;8.15;2.65;;;;;;;;;;5134984;27;20239;-75
2021/12/10 04:45:40;;;;;;;2.85;2.00;;;;;;;;;;5120873;27;20252;-76
2021/12/10 04:48:14;;;;;;;5.80;2.35;;;;;;;;;;5138230;27;20718;-76
2021/12/10 04:50:44;;;;;;;5.82;2.58;;;;;;;;;;5145951;27;20191;-75
2021/12/10 04:53:15;;;;;;;9.95;2.63;;;;;;;;;;5152539;27;20223;-77
2021/12/10 04:55:48;;;;;;;9.23;2.58;;;;;;;;;;5142670;27;20216;-76
2021/12/10 04:58:18;;;;;;;13.52;2.40;;;;;;;;;;5110084;27;20200;-76
2021/12/10 05:00:49;;;;;;;5.47;2.90;;;;;;;;;;5110934;27;20414;-75
2021/12/10 05:03:17;;;;;;;3.90;2.78;;;;;;;;;;5131199;27;20219;-77
2021/12/10 05:08:27;;;;;;;5.72;2.50;;;;;;;;;;5149005;27;20207;-76
2021/12/10 05:11:05;;;;;;;8.27;2.70;;;;;;;;;;5151653;27;20656;-76
2021/12/10 05:13:41;;;;;;;5.40;2.63;;;;;;;;;;5151651;27;20723;-76
2021/12/10 05:16:11;;;;;;;8.35;3.08;;;;;;;;;;5135938;27;20444;-77
2021/12/10 05:18:41;;;;;;;6.70;2.63;;;;;;;;;;5128543;27;20215;-77
2021/12/10 05:24:10;;;;;;;7.10;3.30;;;;;;;;;;5091173;28;20581;-75
2021/12/10 05:26:48;;;;;;;7.55;3.20;;;;;;;;;;5108652;27;20235;-75
2021/12/10 05:29:16;;;;;;;9.02;3.10;;;;;;;;;;5110715;28;20196;-76
2021/12/10 05:31:45;;;;;;;6.88;3.30;;;;;;;;;;5109374;27;20288;-75
2021/12/10 05:34:15;;;;;;;3.92;2.50;;;;;;;;;;5131306;27;20204;-76
2021/12/10 05:36:42;;;;;;;8.05;3.40;;;;;;;;;;5136672;27;20219;-76
2021/12/10 05:39:15;;;;;;;7.90;3.50;;;;;;;;;;5130237;27;20314;-76
2021/12/10 05:41:46;;;;;;;8.45;3.67;;;;;;;;;;5130355;27;20188;-75
2021/12/10 05:44:13;;;;;;;7.30;2.92;;;;;;;;;;5130276;27;20215;-75
2021/12/10 05:49:45;;;;;;;8.15;3.22;;;;;;;;;;5108510;27;20204;-76
2021/12/10 05:52:19;;;;;;;8.30;3.00;;;;;;;;;;5127925;27;20207;-75
2021/12/10 05:54:53;;;;;;;8.45;3.42;;;;;;;;;;5130086;27;20779;-76
2021/12/10 05:57:22;;;;;;;4.28;2.75;;;;;;;;;;5137080;27;20281;-76
2021/12/10 05:59:55;;;;;;;8.20;3.53;;;;;;;;;;5137336;27;20191;-76
2021/12/10 06:02:23;;;;;;;9.55;3.00;;;;;;;;;;5110179;28;20275;-76
2021/12/10 06:04:52;;;;;;;6.32;3.53;;;;;;;;;;5110267;28;20298;-75
2021/12/10 06:07:29;;;;;;;5.35;3.17;;;;;;;;;;5109821;28;20200;-76
2021/12/10 06:09:57;;;;;;;5.45;2.90;;;;;;;;;;5108635;27;20207;-76
2021/12/10 06:12:25;;;;;;;4.03;3.00;;;;;;;;;;5119524;27;20647;-76
2021/12/10 06:14:52;;;;;;;5.82;3.38;;;;;;;;;;5120499;27;20213;-76
2021/12/10 06:17:20;;;;;;;8.23;3.30;;;;;;;;;;5117523;27;20192;-76
2021/12/10 06:19:48;;;;;;;11.05;4.28;;;;;;;;;;5135259;27;20204;-75
2021/12/10 06:22:24;;;;;;;4.05;2.60;;;;;;;;;;5124607;27;20185;-76
2021/12/10 06:24:59;;;;;;;9.85;3.35;;;;;;;;;;5110627;27;20219;-75
2021/12/10 06:27:32;;;;;;;6.78;3.00;;;;;;;;;;5107939;27;20602;-76
2021/12/10 06:33:13;;;;;;;11.02;3.45;;;;;;;;;;5116574;27;20212;-75
2021/12/10 06:35:44;;;;;;;5.43;2.53;;;;;;;;;;5136493;27;20219;-78
2021/12/10 06:38:13;;;;;;;9.38;3.38;;;;;;;;;;5139942;27;20688;-76
2021/12/10 06:40:47;;;;;;;7.57;3.20;;;;;;;;;;5150399;27;20230;-76
2021/12/10 06:43:19;;;;;;;5.65;3.10;;;;;;;;;;5148710;27;20361;-76
2021/12/10 06:45:51;;;;;;;7.60;3.88;;;;;;;;;;5121929;27;20964;-76
2021/12/10 06:48:29;;;;;;;8.30;3.17;;;;;;;;;;5127566;27;20261;-76
2021/12/10 06:51:09;;;;;;;6.53;2.95;;;;;;;;;;5120518;27;20675;-76
2021/12/10 06:53:40;;;;;;;11.70;4.47;;;;;;;;;;5135765;27;20614;-76
2021/12/10 06:56:07;;;;;;;7.07;3.08;;;;;;;;;;5149412;27;20206;-76
2021/12/10 06:58:38;;;;;;;8.15;3.40;;;;;;;;;;5155086;27;20282;-76
2021/12/10 07:01:07;;;;;;;6.97;3.22;;;;;;;;;;5139091;27;20715;-76
2021/12/10 07:03:49;;;;;;;;;;;;;;;;;;;;;
2021/12/10 07:06:18;;;;;;;10.18;3.05;;;;;;;;;;5122311;27;20216;-76
2021/12/10 07:08:46;;;;;;;7.03;2.60;;;;;;;;;;5131025;27;20222;-75
2021/12/10 07:11:29;;;;;;;4.78;2.90;;;;;;;;;;5141464;27;20224;-76
2021/12/10 07:14:00;;;;;;;9.50;2.70;;;;;;;;;;5121969;27;20253;-75
2021/12/10 07:16:29;;;;;;;8.88;2.35;;;;;;;;;;5110917;28;20223;-76
2021/12/10 07:19:06;;;;;;;;;;;;;;;;;;;;;
2021/12/10 07:21:34;;;;;;;7.05;2.30;;;;;;;;;;5130825;27;20192;-74
2021/12/10 07:24:05;;;;;;;9.50;3.33;;;;;;;;;;5132470;27;20314;-75
2021/12/10 07:26:33;;;;;;;5.78;2.80;;;;;;;;;;5136084;27;20291;-76
2021/12/10 07:29:05;;;;;;;3.90;2.40;;;;;;;;;;5137672;27;20620;-75
2021/12/10 07:31:32;;;;;;;4.63;2.30;;;;;;;;;;5131125;27;20685;-76
2021/12/10 07:34:00;;;;;;;5.35;2.85;;;;;;;;;;5133397;27;20207;-76
2021/12/10 07:36:27;;;;;;;8.88;3.10;;;;;;;;;;5128871;27;20219;-76
2021/12/10 07:38:56;;;;;;;7.53;2.75;;;;;;;;;;5123168;27;20312;-76
2021/12/10 07:41:30;;;;;;;7.68;3.08;;;;;;;;;;5139409;27;21836;-79
2021/12/10 07:43:57;;;;;;;7.28;2.22;;;;;;;;;;5131770;27;20720;-77
2021/12/10 07:46:27;;;;;;;5.88;2.47;;;;;;;;;;5131916;27;20247;-76
2021/12/10 07:48:55;;;;;;;5.00;2.50;;;;;;;;;;5131854;27;20692;-75
2021/12/10 07:51:25;;;;;;;8.77;2.78;;;;;;;;;;5130756;27;20192;-75
2021/12/10 07:56:40;;;;;;;5.70;2.70;;;;;;;;;;5098537;28;20220;-76
2021/12/10 07:59:09;;;;;;;5.75;2.17;;;;;;;;;;5113046;28;20673;-76
2021/12/10 08:04:21;;;;;;;5.20;2.60;;;;;;;;;;5137113;27;20295;-75
2021/12/10 08:06:52;;;;;;;12.40;2.60;;;;;;;;;;5133635;27;20884;-77
2021/12/10 08:09:22;;;;;;;6.80;2.80;;;;;;;;;;5125198;27;20261;-77
2021/12/10 08:11:52;;;;;;;7.20;2.83;;;;;;;;;;5128526;27;20192;-76
2021/12/10 08:17:10;;;;;;;4.63;2.75;;;;;;;;;;5109576;27;20234;-79
2021/12/10 08:19:44;;;;;;;9.63;3.45;;;;;;;;;;5115553;27;20294;-78
2021/12/10 08:25:05;;;;;;;6.78;3.05;;;;;;;;;;5127269;27;20864;-76
2021/12/10 08:30:21;;;;;;;5.20;2.63;;;;;;;;;;5128639;27;20204;-78
2021/12/10 08:32:57;;;;;;;5.75;3.47;;;;;;;;;;5130630;27;20280;-75
2021/12/10 08:35:27;;;;;;;8.70;4.05;;;;;;;;;;5123923;27;20276;-78
2021/12/10 08:40:55;;;;;;;13.18;4.13;;;;;;;;;;5108276;28;20215;-74
2021/12/10 08:43:36;;;;;;;6.78;3.83;;;;;;;;;;5127602;27;20241;-77
2021/12/10 08:46:08;;;;;;;21.42;4.57;;;;;;;;;;5137160;27;20207;-81
2021/12/10 08:48:43;;;;;;;6.78;4.20;;;;;;;;;;5148396;27;20272;-77
2021/12/10 08:51:13;;;;;;;10.18;4.35;;;;;;;;;;5148865;27;20187;-76
2021/12/10 08:53:49;;;;;;;5.88;4.10;;;;;;;;;;5130830;27;20240;-78
2021/12/10 08:56:16;;;;;;;7.30;4.72;;;;;;;;;;5132176;27;20208;-77
2021/12/10 08:58:43;;;;;;;8.48;4.22;;;;;;;;;;5114614;27;20207;-78
2021/12/10 09:01:15;;;;;;;9.20;3.95;;;;;;;;;;5111308;27;20852;-77
2021/12/10 09:03:48;;;;;;;7.80;4.47;;;;;;;;;;5113315;28;20280;-75
2021/12/10 09:06:22;;;;;;;14.00;4.30;;;;;;;;;;5132887;27;20219;-78
2021/12/10 09:11:52;;;;;;;9.02;4.50;;;;;;;;;;5122996;27;20199;-76
2021/12/10 09:14:20;;;;;;;6.68;4.32;;;;;;;;;;5129195;27;20188;-77
2021/12/10 09:16:49;;;;;;;7.35;4.22;;;;;;;;;;5131916;27;20195;-77
2021/12/10 09:19:32;;;;;;;7.00;4.82;;;;;;;;;;5120479;27;20196;-76
2021/12/10 09:22:01;;;;;;;6.85;4.00;;;;;;;;;;5110294;27;20213;-76
2021/12/10 09:24:29;;;;;;;9.45;5.00;;;;;;;;;;5135344;27;21243;-76
2021/12/10 09:27:02;;;;;;;8.25;4.88;;;;;;;;;;5140479;27;20180;-77
2021/12/10 09:29:32;;;;;;;6.90;4.22;;;;;;;;;;5123114;27;20735;-76
2021/12/10 09:32:00;;;;;;;7.38;4.53;;;;;;;;;;5128531;27;20229;-75
2021/12/10 09:34:30;;;;;;;10.48;4.65;;;;;;;;;;5130513;27;20291;-75
2021/12/10 09:37:01;;;;;;;11.90;5.30;;;;;;;;;;5127273;27;20196;-76
2021/12/10 09:39:35;;;;;;;6.22;4.05;;;;;;;;;;5124357;27;20781;-76
2021/12/10 09:42:08;;;;;;;6.40;3.90;;;;;;;;;;5135053;27;20204;-75
2021/12/10 09:44:43;;;;;;;8.95;4.10;;;;;;;;;;5127021;27;20222;-76
2021/12/10 09:47:15;;;;;;;8.18;4.40;;;;;;;;;;5130077;27;20234;-76
2021/12/10 09:49:46;;;;;;;5.35;3.60;;;;;;;;;;5128362;27;20249;-75
2021/12/10 09:52:18;;;;;;;6.00;3.47;;;;;;;;;;5125816;27;20245;-75
2021/12/10 09:57:46;;;;;;;12.80;3.55;;;;;;;;;;5122603;27;20195;-75
2021/12/10 10:00:24;;;;;;;7.18;3.28;;;;;;;;;;5129881;27;20288;-77
2021/12/10 10:05:43;;;;;;;4.95;3.13;;;;;;;;;;5128794;27;20231;-76
2021/12/10 10:08:16;;;;;;;8.15;3.88;;;;;;;;;;5127097;27;20648;-77
2021/12/10 10:10:51;;;;;;;4.13;3.72;;;;;;;;;;5122637;27;20215;-76
2021/12/10 10:13:29;;;;;;;8.32;4.00;;;;;;;;;;5135795;27;20707;-76
2021/12/10 10:15:59;;;;;;;5.68;3.67;;;;;;;;;;5147165;27;20207;-76
2021/12/10 10:18:30;;;;;;;8.65;4.20;;;;;;;;;;5149218;27;20255;-76
2021/12/10 10:21:04;;;;;;;12.98;4.78;;;;;;;;;;5136216;27;20649;-77
2021/12/10 10:23:52;;;;;;;8.73;3.72;;;;;;;;;;5128472;27;20207;-76
2021/12/10 10:26:24;;;;;;;8.90;4.97;;;;;;;;;;5126697;27;20679;-76
2021/12/10 10:28:54;;;;;;;8.65;4.00;;;;;;;;;;5130577;27;20640;-77
2021/12/10 10:34:34;;;;;;;7.95;3.55;;;;;;;;;;5105344;27;20599;-76
2021/12/10 10:37:04;;;;;;;7.65;3.30;;;;;;;;;;5124783;27;20286;-76
2021/12/10 10:39:36;;;;;;;4.55;3.15;;;;;;;;;;5128433;27;20726;-77
2021/12/10 10:42:11;;;;;;;8.23;3.97;;;;;;;;;;5111595;28;20189;-77
2021/12/10 10:44:39;;;;;;;3.55;3.22;;;;;;;;;;5109410;28;20220;-76
2021/12/10 10:47:07;;;;;;;11.95;4.20;;;;;;;;;;5111593;27;20559;-75
2021/12/10 10:49:38;;;;;;;7.00;3.80;;;;;;;;;;5136545;27;20203;-77
2021/12/10 10:52:15;;;;;;;10.20;3.63;;;;;;;;;;5132020;27;20196;-76
2021/12/10 10:54:54;;;;;;;7.55;3.08;;;;;;;;;;5129098;27;20223;-76
2021/12/10 10:57:29;;;;;;;9.20;3.35;;;;;;;;;;5127681;27;20195;-77
2021/12/10 11:00:02;;;;;;;6.40;3.00;;;;;;;;;;5107085;28;20294;-76
2021/12/10 11:02:40;;;;;;;3.50;2.90;;;;;;;;;;5110536;27;20401;-76
2021/12/10 11:05:13;;;;;;;8.48;3.80;;;;;;;;;;5136415;27;20231;-76
2021/12/10 11:07:45;;;;;;;7.38;2.53;;;;;;;;;;5130859;27;20257;-76
2021/12/10 11:10:13;;;;;;;10.13;3.30;;;;;;;;;;5123218;27;20312;-76
2021/12/10 11:12:43;;;;;;;6.93;3.00;;;;;;;;;;5125522;27;20668;-76
2021/12/10 11:15:15;;;;;;;5.57;2.97;;;;;;;;;;5129453;27;20448;-76
2021/12/10 11:17:47;;;;;;;4.05;2.70;;;;;;;;;;5124838;27;20620;-76
2021/12/10 11:20:16;;;;;;;5.15;3.30;;;;;;;;;;5122367;27;20223;-76
2021/12/10 11:22:46;;;;;;;7.13;3.30;;;;;;;;;;5133253;27;20200;-76
2021/12/10 11:25:15;;;;;;;10.20;2.95;;;;;;;;;;5130322;27;20310;-76
2021/12/10 11:27:48;;;;;;;4.93;3.08;;;;;;;;;;5127415;27;20204;-76
2021/12/10 11:30:20;;;;;;;5.25;2.83;;;;;;;;;;5129980;27;20280;-77
2021/12/10 11:32:48;;;;;;;8.52;2.95;;;;;;;;;;5126100;27;20200;-76
2021/12/10 11:35:20;;;;;;;8.40;2.70;;;;;;;;;;5117046;27;20221;-75
2021/12/10 11:37:51;;;;;;;3.83;2.85;;;;;;;;;;5110211;28;20217;-76
2021/12/10 11:40:32;;;;;;;5.65;2.95;;;;;;;;;;5111171;28;20196;-76
2021/12/10 11:43:16;;;;;;;8.38;3.10;;;;;;;;;;5130190;27;20191;-76
2021/12/10 11:46:04;;;;;;;7.72;3.40;;;;;;;;;;5139062;27;20211;-75
2021/12/10 11:48:39;;;;;;;3.60;2.92;;;;;;;;;;5118115;27;20392;-76
2021/12/10 11:51:09;;;;;;;4.72;2.90;;;;;;;;;;5133234;27;20187;-75
2021/12/10 11:53:39;;;;;;;5.78;3.30;;;;;;;;;;5133437;27;20645;-76
2021/12/10 11:56:08;;;;;;;8.63;2.70;;;;;;;;;;5133118;27;20220;-75
2021/12/10 11:58:39;;;;;;;3.60;2.83;;;;;;;;;;5114569;27;20205;-76
2021/12/10 12:01:15;;;;;;;6.10;2.92;;;;;;;;;;5114509;28;20201;-76
2021/12/10 12:06:42;;;;;;;4.82;2.83;;;;;;;;;;5118214;27;20721;-77
2021/12/10 12:09:12;;;;;;;5.88;2.92;;;;;;;;;;5136178;27;20190;-76
2021/12/10 12:11:40;;;;;;;3.40;2.50;;;;;;;;;;5111372;28;20537;-75
2021/12/10 12:14:33;;;;;;;3.72;2.60;;;;;;;;;;5110320;28;20246;-75
2021/12/10 12:17:04;;;;;;;7.85;3.42;;;;;;;;;;5068085;28;20201;-77
2021/12/10 12:19:31;;;;;;;5.85;3.05;;;;;;;;;;5077233;28;20205;-76
2021/12/10 12:27:23;;;;;;;9.15;3.72;;;;;;;;;;5073484;28;20260;-75
2021/12/10 12:29:55;;;;;;;6.25;3.30;;;;;;;;;;5087869;28;20300;-75
2021/12/10 12:32:25;;;;;;;4.60;2.60;;;;;;;;;;5086870;28;20186;-76
2021/12/10 12:34:55;;;;;;;10.45;3.50;;;;;;;;;;5104187;27;20771;-76
2021/12/10 12:37:24;;;;;;;4.32;3.25;;;;;;;;;;5138661;27;20198;-76
2021/12/10 12:39:52;;;;;;;8.10;3.50;;;;;;;;;;5130693;27;20198;-76
2021/12/10 12:42:22;;;;;;;3.20;2.50;;;;;;;;;;5131944;27;20234;-76
2021/12/10 12:44:50;;;;;;;4.63;2.33;;;;;;;;;;5129613;27;20243;-77
2021/12/10 12:47:24;;;;;;;9.00;2.85;;;;;;;;;;5131677;27;20291;-77
2021/12/10 12:49:56;;;;;;;4.57;3.15;;;;;;;;;;5124978;27;20204;-76
2021/12/10 12:52:25;;;;;;;4.55;2.38;;;;;;;;;;5138584;27;20191;-76
2021/12/10 12:55:08;;;;;;;5.80;2.78;;;;;;;;;;5142110;27;20207;-77
2021/12/10 12:57:40;;;;;;;7.63;2.80;;;;;;;;;;5152099;27;20310;-76
2021/12/10 13:00:25;;;;;;;;;;;;;;;;;;;;;
2021/12/10 13:03:06;;;;;;;9.68;3.05;;;;;;;;;;5131390;27;20200;-77
2021/12/10 13:05:48;;;;;;;;;;;;;;;;;;;;;
2021/12/10 13:08:17;;;;;;;3.03;2.72;;;;;;;;;;5132348;27;20206;-77
2021/12/10 13:10:54;;;;;;;3.97;2.58;;;;;;;;;;5138070;27;20188;-77
2021/12/10 13:13:36;;;;;;;2.88;2.58;;;;;;;;;;5150877;27;20622;-77
2021/12/10 13:19:29;;;;;;;6.85;3.00;;;;;;;;;;5113579;27;20654;-76
2021/12/10 13:22:04;;;;;;;8.13;3.33;;;;;;;;;;5125592;27;20200;-77
2021/12/10 13:27:32;;;;;;;4.30;3.20;;;;;;;;;;5112470;27;20232;-76
2021/12/10 13:30:12;;;;;;;4.32;3.22;;;;;;;;;;5114778;27;20227;-76
2021/12/10 13:35:29;;;;;;;4.97;3.28;;;;;;;;;;5129057;27;20208;-76
2021/12/10 13:38:17;;;;;;;3.85;2.85;;;;;;;;;;5127373;27;20220;-77
2021/12/10 13:41:02;;;;;;;4.93;3.10;;;;;;;;;;5109082;28;20242;-76
2021/12/10 13:46:32;;;;;;;5.10;3.15;;;;;;;;;;5106811;27;20764;-77
2021/12/10 13:49:06;;;;;;;4.15;2.78;;;;;;;;;;5137312;27;20252;-76
2021/12/10 13:51:35;;;;;;;3.83;2.80;;;;;;;;;;5145701;27;20281;-77
2021/12/10 13:54:10;;;;;;;6.95;3.05;;;;;;;;;;5150715;27;20194;-77
2021/12/10 13:56:56;;;;;;;6.65;3.65;;;;;;;;;;5140779;27;20287;-76
2021/12/10 14:03:02;;;;;;;4.82;3.35;;;;;;;;;;5090807;27;20565;-77
2021/12/10 14:06:06;;;;;;;7.88;3.63;;;;;;;;;;5124789;27;20573;-77
2021/12/10 14:08:35;;;;;;;6.20;3.55;;;;;;;;;;5131424;27;20699;-76
2021/12/10 14:11:25;;;;;;;6.07;3.75;;;;;;;;;;5136738;27;20525;-77
2021/12/10 14:17:08;;;;;;;4.15;3.50;;;;;;;;;;5092297;28;20222;-76
2021/12/10 14:19:37;;;;;;;7.03;3.92;;;;;;;;;;5109220;28;20636;-76
2021/12/10 14:22:12;;;;;;;7.32;3.72;;;;;;;;;;5116716;27;20724;-76
2021/12/10 14:25:01;;;;;;;9.85;4.45;;;;;;;;;;5114774;27;20220;-77
2021/12/10 14:30:41;;;;;;;4.72;3.65;;;;;;;;;;5085866;27;20589;-74
2021/12/10 14:33:14;;;;;;;7.00;3.85;;;;;;;;;;5127826;27;20221;-77
2021/12/10 14:35:47;;;;;;;14.05;3.70;;;;;;;;;;5126221;27;20222;-75
2021/12/10 14:38:32;;;;;;;6.85;4.25;;;;;;;;;;5129489;27;20216;-76
2021/12/10 14:41:48;;;;;;;;;;;;;;;;;;;;;
2021/12/10 14:44:31;;;;;;;5.28;3.20;;;;;;;;;;5134739;27;20191;-76
2021/12/10 14:49:58;;;;;;;7.72;3.78;;;;;;;;;;5092069;28;20608;-77
2021/12/10 14:52:48;;;;;;;7.00;4.65;;;;;;;;;;5083775;28;20519;-77
2021/12/10 14:55:40;;;;;;;8.45;4.70;;;;;;;;;;5097102;28;20228;-76
2021/12/10 15:01:21;;;;;;;6.13;4.18;;;;;;;;;;5062114;28;20199;-76
2021/12/10 15:04:12;;;;;;;5.93;4.25;;;;;;;;;;5117362;27;20205;-77
2021/12/10 15:07:05;;;;;;;7.50;3.50;;;;;;;;;;5085993;28;20232;-75
2021/12/10 15:09:50;;;;;;;5.60;3.90;;;;;;;;;;5085883;28;20189;-76
2021/12/10 15:12:18;;;;;;;10.80;4.53;;;;;;;;;;5075275;28;20208;-76
2021/12/10 15:14:55;;;;;;;9.07;4.00;;;;;;;;;;5088518;28;20300;-75
2021/12/10 15:17:38;;;;;;;6.10;3.95;;;;;;;;;;5076449;28;20215;-75
2021/12/10 15:20:23;;;;;;;6.30;4.38;;;;;;;;;;5102102;27;20207;-75
2021/12/10 15:22:53;;;;;;;10.27;4.68;;;;;;;;;;5137324;27;20398;-75
2021/12/10 15:25:24;;;;;;;7.10;4.25;;;;;;;;;;5133439;27;20483;-75
2021/12/10 15:27:54;;;;;;;6.97;4.40;;;;;;;;;;5132988;27;20220;-75
2021/12/10 15:30:30;;;;;;;10.00;5.80;;;;;;;;;;5133423;27;20196;-76
2021/12/10 15:33:00;;;;;;;13.40;5.55;;;;;;;;;;5126900;27;20188;-74
2021/12/10 15:35:29;;;;;;;6.78;5.63;;;;;;;;;;5125318;27;20622;-74
2021/12/10 15:37:59;;;;;;;10.75;4.90;;;;;;;;;;5135898;27;20534;-75
2021/12/10 15:40:28;;;;;;;9.35;4.60;;;;;;;;;;5132451;27;20672;-75
2021/12/10 15:42:56;;;;;;;8.68;4.75;;;;;;;;;;5136399;27;20188;-76
2021/12/10 15:45:36;;;;;;;7.05;4.60;;;;;;;;;;5138650;27;20706;-76
2021/12/10 15:48:05;;;;;;;8.23;4.53;;;;;;;;;;5139339;27;20256;-76
2021/12/10 15:50:35;;;;;;;15.52;5.38;;;;;;;;;;5132745;27;20199;-76
2021/12/10 15:53:06;;;;;;;8.23;4.50;;;;;;;;;;5131916;27;20256;-76
2021/12/10 15:55:39;;;;;;;7.30;4.20;;;;;;;;;;5134026;27;20212;-76
2021/12/10 15:58:12;;;;;;;4.93;3.92;;;;;;;;;;5124036;27;20648;-75
2021/12/10 16:00:44;;;;;;;8.32;4.60;;;;;;;;;;5138894;27;20668;-76
2021/12/10 16:03:13;;;;;;;5.90;4.80;;;;;;;;;;5140611;27;20609;-76
2021/12/10 16:05:46;;;;;;;9.65;4.38;;;;;;;;;;5153223;27;20207;-76
2021/12/10 16:08:17;;;;;;;9.88;4.30;;;;;;;;;;5144704;27;20328;-76
2021/12/10 16:11:14;;;;;;;6.70;4.85;;;;;;;;;;5132920;27;20272;-75
2021/12/10 16:14:02;;;;;;;6.68;5.10;;;;;;;;;;5124773;27;20586;-75
2021/12/10 16:16:53;;;;;;;9.02;5.85;;;;;;;;;;5130224;27;20916;-75
2021/12/10 16:19:39;;;;;;;8.98;5.57;;;;;;;;;;5141096;27;20199;-76
2021/12/10 16:22:11;;;;;;;12.23;6.57;;;;;;;;;;5116352;27;20219;-76
2021/12/10 16:24:43;;;;;;;6.47;5.00;;;;;;;;;;5117399;27;20617;-76
2021/12/10 16:27:16;;;;;;;8.13;5.30;;;;;;;;;;5129824;27;20628;-76
2021/12/10 16:29:46;;;;;;;9.57;6.25;;;;;;;;;;5128619;27;20191;-74
2021/12/10 16:32:15;;;;;;;9.95;6.65;;;;;;;;;;5128543;27;20780;-75
2021/12/10 16:37:38;;;;;;;8.65;6.40;;;;;;;;;;5126769;27;20199;-75
2021/12/10 16:40:07;;;;;;;11.55;6.90;;;;;;;;;;5137856;27;20200;-75
2021/12/10 16:42:41;;;;;;;6.55;5.85;;;;;;;;;;5135835;27;20195;-76
2021/12/10 16:45:18;;;;;;;8.38;6.05;;;;;;;;;;5131878;27;20216;-76
2021/12/10 16:47:52;;;;;;;10.40;6.50;;;;;;;;;;5127238;27;20576;-76